sensor_id;sensor_type;location;lat;lon;timestamp;P1;durP1;ratioP1;P2;durP2;ratioP2
56720;SDS011;53183;47.412;18.884;2024-03-22T00:01:44;23.27;;;9.40;;
56720;SDS011;53183;47.412;18.884;2024-03-22T00:04:12;38.38;;;11.25;;
56720;SDS011;53183;47.412;18.884;2024-03-22T00:06:39;20.88;;;10.07;;
56720;SDS011;53183;47.412;18.884;2024-03-22T00:09:06;26.12;;;11.00;;
56720;SDS011;53183;47.412;18.884;2024-03-22T00:11:32;21.95;;;10.10;;
56720;SDS011;53183;47.412;18.884;2024-03-22T00:13:58;23.75;;;10.32;;
56720;SDS011;53183;47.412;18.884;2024-03-22T00:16:25;23.48;;;9.70;;
56720;SDS011;53183;47.412;18.884;2024-03-22T00:18:51;24.98;;;9.82;;
56720;SDS011;53183;47.412;18.884;2024-03-22T00:21:17;21.70;;;9.75;;
56720;SDS011;53183;47.412;18.884;2024-03-22T00:23:44;23.70;;;9.70;;
56720;SDS011;53183;47.412;18.884;2024-03-22T00:26:12;27.17;;;12.10;;
56720;SDS011;53183;47.412;18.884;2024-03-22T00:28:38;21.70;;;9.27;;
56720;SDS011;53183;47.412;18.884;2024-03-22T00:31:05;26.23;;;9.75;;
56720;SDS011;53183;47.412;18.884;2024-03-22T00:33:32;21.20;;;9.15;;
56720;SDS011;53183;47.412;18.884;2024-03-22T00:35:58;23.12;;;9.25;;
56720;SDS011;53183;47.412;18.884;2024-03-22T00:38:25;23.33;;;9.18;;
56720;SDS011;53183;47.412;18.884;2024-03-22T00:40:52;20.92;;;8.85;;
56720;SDS011;53183;47.412;18.884;2024-03-22T00:43:20;19.12;;;8.93;;
56720;SDS011;53183;47.412;18.884;2024-03-22T00:45:47;19.75;;;9.27;;
56720;SDS011;53183;47.412;18.884;2024-03-22T00:48:13;25.95;;;9.48;;
56720;SDS011;53183;47.412;18.884;2024-03-22T00:50:40;20.52;;;8.90;;
56720;SDS011;53183;47.412;18.884;2024-03-22T00:53:06;19.67;;;8.75;;
56720;SDS011;53183;47.412;18.884;2024-03-22T00:55:34;22.35;;;9.70;;
56720;SDS011;53183;47.412;18.884;2024-03-22T00:58:00;22.00;;;9.23;;
56720;SDS011;53183;47.412;18.884;2024-03-22T01:00:27;23.35;;;9.50;;
56720;SDS011;53183;47.412;18.884;2024-03-22T01:02:53;18.15;;;9.88;;
56720;SDS011;53183;47.412;18.884;2024-03-22T01:05:20;23.83;;;9.35;;
56720;SDS011;53183;47.412;18.884;2024-03-22T01:07:46;23.25;;;9.88;;
56720;SDS011;53183;47.412;18.884;2024-03-22T01:10:12;23.98;;;9.43;;
56720;SDS011;53183;47.412;18.884;2024-03-22T01:12:39;27.30;;;8.93;;
56720;SDS011;53183;47.412;18.884;2024-03-22T01:15:06;19.05;;;10.45;;
56720;SDS011;53183;47.412;18.884;2024-03-22T01:17:33;31.00;;;11.20;;
56720;SDS011;53183;47.412;18.884;2024-03-22T01:20:00;21.73;;;10.07;;
56720;SDS011;53183;47.412;18.884;2024-03-22T01:22:26;18.92;;;9.18;;
56720;SDS011;53183;47.412;18.884;2024-03-22T01:24:53;21.05;;;10.07;;
56720;SDS011;53183;47.412;18.884;2024-03-22T01:27:19;20.90;;;10.48;;
56720;SDS011;53183;47.412;18.884;2024-03-22T01:29:46;18.55;;;9.35;;
56720;SDS011;53183;47.412;18.884;2024-03-22T01:32:13;25.27;;;10.15;;
56720;SDS011;53183;47.412;18.884;2024-03-22T01:34:40;21.33;;;9.93;;
56720;SDS011;53183;47.412;18.884;2024-03-22T01:37:06;25.60;;;10.23;;
56720;SDS011;53183;47.412;18.884;2024-03-22T01:39:33;30.77;;;11.82;;
56720;SDS011;53183;47.412;18.884;2024-03-22T01:41:59;26.17;;;9.57;;
56720;SDS011;53183;47.412;18.884;2024-03-22T01:44:28;18.02;;;8.98;;
56720;SDS011;53183;47.412;18.884;2024-03-22T01:47:02;22.60;;;9.45;;
56720;SDS011;53183;47.412;18.884;2024-03-22T01:49:30;19.62;;;9.52;;
56720;SDS011;53183;47.412;18.884;2024-03-22T01:51:58;21.62;;;8.25;;
56720;SDS011;53183;47.412;18.884;2024-03-22T01:54:24;19.48;;;9.65;;
56720;SDS011;53183;47.412;18.884;2024-03-22T01:56:50;21.55;;;8.20;;
56720;SDS011;53183;47.412;18.884;2024-03-22T01:59:17;18.23;;;8.18;;
56720;SDS011;53183;47.412;18.884;2024-03-22T02:01:45;16.92;;;9.00;;
56720;SDS011;53183;47.412;18.884;2024-03-22T02:04:11;21.30;;;9.43;;
56720;SDS011;53183;47.412;18.884;2024-03-22T02:06:38;23.75;;;9.25;;
56720;SDS011;53183;47.412;18.884;2024-03-22T02:09:05;22.80;;;9.77;;
56720;SDS011;53183;47.412;18.884;2024-03-22T02:11:32;31.00;;;10.25;;
56720;SDS011;53183;47.412;18.884;2024-03-22T02:13:58;17.62;;;9.63;;
56720;SDS011;53183;47.412;18.884;2024-03-22T02:16:25;21.85;;;10.30;;
56720;SDS011;53183;47.412;18.884;2024-03-22T02:18:52;21.37;;;9.75;;
56720;SDS011;53183;47.412;18.884;2024-03-22T02:21:18;20.58;;;9.80;;
56720;SDS011;53183;47.412;18.884;2024-03-22T02:23:44;25.37;;;11.05;;
56720;SDS011;53183;47.412;18.884;2024-03-22T02:26:11;24.25;;;10.32;;
56720;SDS011;53183;47.412;18.884;2024-03-22T02:28:38;21.00;;;9.70;;
56720;SDS011;53183;47.412;18.884;2024-03-22T02:31:06;23.65;;;10.50;;
56720;SDS011;53183;47.412;18.884;2024-03-22T02:33:32;26.77;;;10.50;;
56720;SDS011;53183;47.412;18.884;2024-03-22T02:36:00;26.98;;;11.48;;
56720;SDS011;53183;47.412;18.884;2024-03-22T02:38:26;20.20;;;9.82;;
56720;SDS011;53183;47.412;18.884;2024-03-22T02:40:53;23.83;;;10.15;;
56720;SDS011;53183;47.412;18.884;2024-03-22T02:43:19;22.65;;;10.45;;
56720;SDS011;53183;47.412;18.884;2024-03-22T02:45:47;26.00;;;11.02;;
56720;SDS011;53183;47.412;18.884;2024-03-22T02:48:14;26.73;;;11.57;;
56720;SDS011;53183;47.412;18.884;2024-03-22T02:50:40;22.52;;;10.07;;
56720;SDS011;53183;47.412;18.884;2024-03-22T02:53:07;21.80;;;11.12;;
56720;SDS011;53183;47.412;18.884;2024-03-22T02:55:38;23.62;;;10.82;;
56720;SDS011;53183;47.412;18.884;2024-03-22T02:58:05;20.17;;;10.68;;
56720;SDS011;53183;47.412;18.884;2024-03-22T03:00:37;22.67;;;11.52;;
56720;SDS011;53183;47.412;18.884;2024-03-22T03:03:05;23.00;;;11.68;;
56720;SDS011;53183;47.412;18.884;2024-03-22T03:05:32;20.23;;;10.20;;
56720;SDS011;53183;47.412;18.884;2024-03-22T03:07:58;27.37;;;11.15;;
56720;SDS011;53183;47.412;18.884;2024-03-22T03:10:25;26.30;;;12.00;;
56720;SDS011;53183;47.412;18.884;2024-03-22T03:12:54;23.25;;;11.05;;
56720;SDS011;53183;47.412;18.884;2024-03-22T03:15:20;21.37;;;10.00;;
56720;SDS011;53183;47.412;18.884;2024-03-22T03:17:47;18.40;;;10.02;;
56720;SDS011;53183;47.412;18.884;2024-03-22T03:20:13;19.83;;;10.77;;
56720;SDS011;53183;47.412;18.884;2024-03-22T03:22:40;20.88;;;11.82;;
56720;SDS011;53183;47.412;18.884;2024-03-22T03:25:07;28.60;;;12.55;;
56720;SDS011;53183;47.412;18.884;2024-03-22T03:27:33;23.17;;;11.10;;
56720;SDS011;53183;47.412;18.884;2024-03-22T03:30:00;25.30;;;11.35;;
56720;SDS011;53183;47.412;18.884;2024-03-22T03:32:27;24.52;;;11.82;;
56720;SDS011;53183;47.412;18.884;2024-03-22T03:34:54;20.37;;;11.02;;
56720;SDS011;53183;47.412;18.884;2024-03-22T03:37:20;26.05;;;10.90;;
56720;SDS011;53183;47.412;18.884;2024-03-22T03:39:49;20.35;;;11.85;;
56720;SDS011;53183;47.412;18.884;2024-03-22T03:42:15;24.45;;;11.05;;
56720;SDS011;53183;47.412;18.884;2024-03-22T03:44:41;20.17;;;11.25;;
56720;SDS011;53183;47.412;18.884;2024-03-22T03:47:08;20.62;;;11.60;;
56720;SDS011;53183;47.412;18.884;2024-03-22T03:49:35;22.45;;;11.05;;
56720;SDS011;53183;47.412;18.884;2024-03-22T03:52:02;21.00;;;11.10;;
56720;SDS011;53183;47.412;18.884;2024-03-22T03:54:29;18.48;;;11.20;;
56720;SDS011;53183;47.412;18.884;2024-03-22T03:56:55;25.27;;;12.57;;
56720;SDS011;53183;47.412;18.884;2024-03-22T03:59:21;29.00;;;11.73;;
56720;SDS011;53183;47.412;18.884;2024-03-22T04:01:48;25.15;;;13.27;;
56720;SDS011;53183;47.412;18.884;2024-03-22T04:04:15;27.80;;;12.82;;
56720;SDS011;53183;47.412;18.884;2024-03-22T04:06:43;20.27;;;11.82;;
56720;SDS011;53183;47.412;18.884;2024-03-22T04:09:09;25.90;;;11.82;;
56720;SDS011;53183;47.412;18.884;2024-03-22T04:11:36;19.52;;;11.50;;
56720;SDS011;53183;47.412;18.884;2024-03-22T04:14:04;28.12;;;11.48;;
56720;SDS011;53183;47.412;18.884;2024-03-22T04:16:31;22.17;;;11.55;;
56720;SDS011;53183;47.412;18.884;2024-03-22T04:18:58;19.55;;;10.95;;
56720;SDS011;53183;47.412;18.884;2024-03-22T04:21:25;22.27;;;10.98;;
56720;SDS011;53183;47.412;18.884;2024-03-22T04:23:52;21.83;;;11.12;;
56720;SDS011;53183;47.412;18.884;2024-03-22T04:26:20;23.45;;;12.40;;
56720;SDS011;53183;47.412;18.884;2024-03-22T04:28:47;20.70;;;11.43;;
56720;SDS011;53183;47.412;18.884;2024-03-22T04:31:14;21.00;;;12.52;;
56720;SDS011;53183;47.412;18.884;2024-03-22T04:33:42;22.10;;;13.05;;
56720;SDS011;53183;47.412;18.884;2024-03-22T04:36:08;22.00;;;11.80;;
56720;SDS011;53183;47.412;18.884;2024-03-22T04:38:37;21.27;;;11.05;;
56720;SDS011;53183;47.412;18.884;2024-03-22T04:41:03;23.10;;;11.30;;
56720;SDS011;53183;47.412;18.884;2024-03-22T04:43:30;21.02;;;11.73;;
56720;SDS011;53183;47.412;18.884;2024-03-22T04:45:56;19.60;;;11.20;;
56720;SDS011;53183;47.412;18.884;2024-03-22T04:48:23;22.62;;;10.13;;
56720;SDS011;53183;47.412;18.884;2024-03-22T04:50:50;24.55;;;12.27;;
56720;SDS011;53183;47.412;18.884;2024-03-22T04:53:17;28.92;;;12.35;;
56720;SDS011;53183;47.412;18.884;2024-03-22T04:55:47;24.63;;;12.20;;
56720;SDS011;53183;47.412;18.884;2024-03-22T04:58:14;20.88;;;11.43;;
56720;SDS011;53183;47.412;18.884;2024-03-22T05:00:42;20.27;;;10.55;;
56720;SDS011;53183;47.412;18.884;2024-03-22T05:03:09;27.67;;;11.82;;
56720;SDS011;53183;47.412;18.884;2024-03-22T05:05:36;20.35;;;11.00;;
56720;SDS011;53183;47.412;18.884;2024-03-22T05:08:02;21.00;;;10.25;;
56720;SDS011;53183;47.412;18.884;2024-03-22T05:10:30;19.17;;;12.05;;
56720;SDS011;53183;47.412;18.884;2024-03-22T05:12:56;23.00;;;12.00;;
56720;SDS011;53183;47.412;18.884;2024-03-22T05:15:23;23.10;;;12.95;;
56720;SDS011;53183;47.412;18.884;2024-03-22T05:17:53;17.60;;;10.60;;
56720;SDS011;53183;47.412;18.884;2024-03-22T05:20:20;20.58;;;11.48;;
56720;SDS011;53183;47.412;18.884;2024-03-22T05:22:46;21.15;;;11.27;;
56720;SDS011;53183;47.412;18.884;2024-03-22T05:25:14;18.45;;;11.90;;
56720;SDS011;53183;47.412;18.884;2024-03-22T05:27:42;26.00;;;12.50;;
56720;SDS011;53183;47.412;18.884;2024-03-22T05:30:09;23.08;;;11.95;;
56720;SDS011;53183;47.412;18.884;2024-03-22T05:32:38;22.45;;;12.00;;
56720;SDS011;53183;47.412;18.884;2024-03-22T05:35:06;19.12;;;11.70;;
56720;SDS011;53183;47.412;18.884;2024-03-22T05:37:33;21.42;;;12.50;;
56720;SDS011;53183;47.412;18.884;2024-03-22T05:40:01;25.17;;;12.48;;
56720;SDS011;53183;47.412;18.884;2024-03-22T05:42:29;22.77;;;11.82;;
56720;SDS011;53183;47.412;18.884;2024-03-22T05:44:55;21.40;;;12.55;;
56720;SDS011;53183;47.412;18.884;2024-03-22T05:47:22;27.60;;;13.18;;
56720;SDS011;53183;47.412;18.884;2024-03-22T05:49:48;26.00;;;13.98;;
56720;SDS011;53183;47.412;18.884;2024-03-22T05:52:14;25.58;;;12.95;;
56720;SDS011;53183;47.412;18.884;2024-03-22T05:54:43;26.80;;;11.98;;
56720;SDS011;53183;47.412;18.884;2024-03-22T05:57:09;24.65;;;11.65;;
56720;SDS011;53183;47.412;18.884;2024-03-22T05:59:37;24.17;;;11.80;;
56720;SDS011;53183;47.412;18.884;2024-03-22T06:02:03;24.10;;;12.75;;
56720;SDS011;53183;47.412;18.884;2024-03-22T06:04:33;24.55;;;11.70;;
56720;SDS011;53183;47.412;18.884;2024-03-22T06:07:00;21.90;;;12.32;;
56720;SDS011;53183;47.412;18.884;2024-03-22T06:09:29;20.58;;;11.88;;
56720;SDS011;53183;47.412;18.884;2024-03-22T06:12:04;22.20;;;11.80;;
56720;SDS011;53183;47.412;18.884;2024-03-22T06:14:33;32.78;;;12.50;;
56720;SDS011;53183;47.412;18.884;2024-03-22T06:16:59;19.25;;;11.73;;
56720;SDS011;53183;47.412;18.884;2024-03-22T06:19:25;22.37;;;11.77;;
56720;SDS011;53183;47.412;18.884;2024-03-22T06:21:52;27.25;;;12.15;;
56720;SDS011;53183;47.412;18.884;2024-03-22T06:24:18;21.12;;;11.98;;
56720;SDS011;53183;47.412;18.884;2024-03-22T06:26:45;28.38;;;12.13;;
56720;SDS011;53183;47.412;18.884;2024-03-22T06:29:11;22.48;;;12.07;;
56720;SDS011;53183;47.412;18.884;2024-03-22T06:31:39;22.42;;;12.10;;
56720;SDS011;53183;47.412;18.884;2024-03-22T06:34:06;25.83;;;13.40;;
56720;SDS011;53183;47.412;18.884;2024-03-22T06:36:33;27.42;;;13.32;;
56720;SDS011;53183;47.412;18.884;2024-03-22T06:39:02;30.83;;;12.40;;
56720;SDS011;53183;47.412;18.884;2024-03-22T06:41:33;24.17;;;11.30;;
56720;SDS011;53183;47.412;18.884;2024-03-22T06:44:00;25.35;;;11.50;;
56720;SDS011;53183;47.412;18.884;2024-03-22T06:46:28;20.48;;;11.63;;
56720;SDS011;53183;47.412;18.884;2024-03-22T06:48:57;19.62;;;11.93;;
56720;SDS011;53183;47.412;18.884;2024-03-22T06:51:23;19.70;;;11.73;;
56720;SDS011;53183;47.412;18.884;2024-03-22T06:53:49;26.73;;;11.88;;
56720;SDS011;53183;47.412;18.884;2024-03-22T06:56:18;19.27;;;11.95;;
56720;SDS011;53183;47.412;18.884;2024-03-22T06:58:44;26.08;;;11.68;;
56720;SDS011;53183;47.412;18.884;2024-03-22T07:01:11;23.02;;;12.43;;
56720;SDS011;53183;47.412;18.884;2024-03-22T07:03:39;23.85;;;12.13;;
56720;SDS011;53183;47.412;18.884;2024-03-22T07:06:06;23.45;;;11.68;;
56720;SDS011;53183;47.412;18.884;2024-03-22T07:08:34;20.25;;;11.40;;
56720;SDS011;53183;47.412;18.884;2024-03-22T07:11:04;19.12;;;11.77;;
56720;SDS011;53183;47.412;18.884;2024-03-22T07:13:31;19.65;;;11.70;;
56720;SDS011;53183;47.412;18.884;2024-03-22T07:15:57;21.20;;;11.50;;
56720;SDS011;53183;47.412;18.884;2024-03-22T07:18:24;24.08;;;11.98;;
56720;SDS011;53183;47.412;18.884;2024-03-22T07:20:51;19.52;;;12.23;;
56720;SDS011;53183;47.412;18.884;2024-03-22T07:23:17;22.95;;;10.95;;
56720;SDS011;53183;47.412;18.884;2024-03-22T07:25:43;18.33;;;12.35;;
56720;SDS011;53183;47.412;18.884;2024-03-22T07:28:11;21.05;;;11.00;;
56720;SDS011;53183;47.412;18.884;2024-03-22T07:30:38;21.65;;;11.70;;
56720;SDS011;53183;47.412;18.884;2024-03-22T07:33:05;24.58;;;12.80;;
56720;SDS011;53183;47.412;18.884;2024-03-22T07:35:31;21.45;;;12.13;;
56720;SDS011;53183;47.412;18.884;2024-03-22T07:37:57;19.33;;;11.93;;
56720;SDS011;53183;47.412;18.884;2024-03-22T07:40:24;26.98;;;12.70;;
56720;SDS011;53183;47.412;18.884;2024-03-22T07:42:50;22.20;;;12.27;;
56720;SDS011;53183;47.412;18.884;2024-03-22T07:45:16;21.00;;;12.65;;
56720;SDS011;53183;47.412;18.884;2024-03-22T07:47:43;22.02;;;12.65;;
56720;SDS011;53183;47.412;18.884;2024-03-22T07:50:11;19.40;;;11.93;;
56720;SDS011;53183;47.412;18.884;2024-03-22T07:52:37;20.83;;;12.45;;
56720;SDS011;53183;47.412;18.884;2024-03-22T07:55:04;22.95;;;11.90;;
56720;SDS011;53183;47.412;18.884;2024-03-22T07:57:30;26.80;;;12.20;;
56720;SDS011;53183;47.412;18.884;2024-03-22T07:59:57;21.48;;;11.70;;
56720;SDS011;53183;47.412;18.884;2024-03-22T08:02:24;23.85;;;13.82;;
56720;SDS011;53183;47.412;18.884;2024-03-22T08:04:50;24.83;;;12.25;;
56720;SDS011;53183;47.412;18.884;2024-03-22T08:07:16;22.30;;;12.60;;
56720;SDS011;53183;47.412;18.884;2024-03-22T08:09:43;20.95;;;12.80;;
56720;SDS011;53183;47.412;18.884;2024-03-22T08:12:09;23.20;;;11.98;;
56720;SDS011;53183;47.412;18.884;2024-03-22T08:14:36;29.00;;;12.80;;
56720;SDS011;53183;47.412;18.884;2024-03-22T08:17:03;20.30;;;12.13;;
56720;SDS011;53183;47.412;18.884;2024-03-22T08:19:30;18.87;;;11.52;;
56720;SDS011;53183;47.412;18.884;2024-03-22T08:21:58;19.42;;;11.85;;
56720;SDS011;53183;47.412;18.884;2024-03-22T08:24:25;21.55;;;12.90;;
56720;SDS011;53183;47.412;18.884;2024-03-22T08:26:52;20.42;;;12.70;;
56720;SDS011;53183;47.412;18.884;2024-03-22T08:29:18;23.00;;;12.02;;
56720;SDS011;53183;47.412;18.884;2024-03-22T08:31:44;21.05;;;11.50;;
56720;SDS011;53183;47.412;18.884;2024-03-22T08:34:11;20.33;;;12.75;;
56720;SDS011;53183;47.412;18.884;2024-03-22T08:36:38;21.45;;;12.00;;
56720;SDS011;53183;47.412;18.884;2024-03-22T08:39:04;22.20;;;12.57;;
56720;SDS011;53183;47.412;18.884;2024-03-22T08:41:32;18.27;;;12.07;;
56720;SDS011;53183;47.412;18.884;2024-03-22T08:43:58;28.67;;;13.55;;
56720;SDS011;53183;47.412;18.884;2024-03-22T08:46:27;23.02;;;13.43;;
56720;SDS011;53183;47.412;18.884;2024-03-22T08:48:55;19.02;;;12.18;;
56720;SDS011;53183;47.412;18.884;2024-03-22T08:51:21;18.87;;;12.27;;
56720;SDS011;53183;47.412;18.884;2024-03-22T08:53:49;21.48;;;13.23;;
56720;SDS011;53183;47.412;18.884;2024-03-22T08:56:15;21.65;;;12.77;;
56720;SDS011;53183;47.412;18.884;2024-03-22T08:58:42;21.23;;;12.35;;
56720;SDS011;53183;47.412;18.884;2024-03-22T09:01:12;24.05;;;12.35;;
56720;SDS011;53183;47.412;18.884;2024-03-22T09:03:39;22.10;;;12.37;;
56720;SDS011;53183;47.412;18.884;2024-03-22T09:06:05;20.98;;;12.07;;
56720;SDS011;53183;47.412;18.884;2024-03-22T09:08:32;20.23;;;13.20;;
56720;SDS011;53183;47.412;18.884;2024-03-22T09:11:00;20.98;;;12.85;;
56720;SDS011;53183;47.412;18.884;2024-03-22T09:13:26;21.80;;;12.98;;
56720;SDS011;53183;47.412;18.884;2024-03-22T09:15:56;20.50;;;13.00;;
56720;SDS011;53183;47.412;18.884;2024-03-22T09:18:24;20.50;;;11.85;;
56720;SDS011;53183;47.412;18.884;2024-03-22T09:20:50;20.25;;;12.68;;
56720;SDS011;53183;47.412;18.884;2024-03-22T09:23:20;20.75;;;12.45;;
56720;SDS011;53183;47.412;18.884;2024-03-22T09:25:47;18.77;;;12.18;;
56720;SDS011;53183;47.412;18.884;2024-03-22T09:28:13;21.02;;;12.10;;
56720;SDS011;53183;47.412;18.884;2024-03-22T09:30:39;26.20;;;13.68;;
56720;SDS011;53183;47.412;18.884;2024-03-22T09:33:09;20.88;;;13.50;;
56720;SDS011;53183;47.412;18.884;2024-03-22T09:35:36;20.52;;;12.63;;
56720;SDS011;53183;47.412;18.884;2024-03-22T09:38:04;21.98;;;13.57;;
56720;SDS011;53183;47.412;18.884;2024-03-22T09:40:30;24.75;;;13.00;;
56720;SDS011;53183;47.412;18.884;2024-03-22T09:43:00;18.67;;;12.90;;
56720;SDS011;53183;47.412;18.884;2024-03-22T09:45:31;27.00;;;13.07;;
56720;SDS011;53183;47.412;18.884;2024-03-22T09:47:58;20.75;;;12.82;;
56720;SDS011;53183;47.412;18.884;2024-03-22T09:50:25;21.48;;;13.85;;
56720;SDS011;53183;47.412;18.884;2024-03-22T09:52:52;18.58;;;12.50;;
56720;SDS011;53183;47.412;18.884;2024-03-22T09:55:24;20.17;;;12.80;;
56720;SDS011;53183;47.412;18.884;2024-03-22T09:57:50;22.85;;;14.05;;
56720;SDS011;53183;47.412;18.884;2024-03-22T10:00:18;20.67;;;13.40;;
56720;SDS011;53183;47.412;18.884;2024-03-22T10:02:53;21.40;;;12.68;;
56720;SDS011;53183;47.412;18.884;2024-03-22T10:05:20;19.62;;;13.73;;
56720;SDS011;53183;47.412;18.884;2024-03-22T10:07:46;25.40;;;15.38;;
56720;SDS011;53183;47.412;18.884;2024-03-22T10:10:13;22.08;;;13.70;;
56720;SDS011;53183;47.412;18.884;2024-03-22T10:12:41;20.85;;;12.55;;
56720;SDS011;53183;47.412;18.884;2024-03-22T10:15:08;22.25;;;13.25;;
56720;SDS011;53183;47.412;18.884;2024-03-22T10:17:34;20.67;;;13.40;;
56720;SDS011;53183;47.412;18.884;2024-03-22T10:20:02;17.58;;;11.63;;
56720;SDS011;53183;47.412;18.884;2024-03-22T10:22:34;18.30;;;11.38;;
56720;SDS011;53183;47.412;18.884;2024-03-22T10:25:04;15.98;;;10.02;;
56720;SDS011;53183;47.412;18.884;2024-03-22T10:27:33;45.83;;;11.52;;
56720;SDS011;53183;47.412;18.884;2024-03-22T10:30:00;17.42;;;11.50;;
56720;SDS011;53183;47.412;18.884;2024-03-22T10:32:29;18.92;;;12.10;;
56720;SDS011;53183;47.412;18.884;2024-03-22T10:34:56;17.42;;;11.50;;
56720;SDS011;53183;47.412;18.884;2024-03-22T10:37:23;18.37;;;11.30;;
56720;SDS011;53183;47.412;18.884;2024-03-22T10:39:52;17.35;;;10.32;;
56720;SDS011;53183;47.412;18.884;2024-03-22T10:42:20;19.75;;;9.93;;
56720;SDS011;53183;47.412;18.884;2024-03-22T10:44:46;15.88;;;9.15;;
56720;SDS011;53183;47.412;18.884;2024-03-22T10:47:12;17.42;;;9.82;;
56720;SDS011;53183;47.412;18.884;2024-03-22T10:49:43;14.75;;;9.15;;
56720;SDS011;53183;47.412;18.884;2024-03-22T10:52:12;14.90;;;10.30;;
56720;SDS011;53183;47.412;18.884;2024-03-22T10:54:39;17.77;;;10.13;;
56720;SDS011;53183;47.412;18.884;2024-03-22T10:57:14;15.32;;;9.95;;
56720;SDS011;53183;47.412;18.884;2024-03-22T10:59:46;15.25;;;9.90;;
56720;SDS011;53183;47.412;18.884;2024-03-22T11:02:12;16.33;;;10.38;;
56720;SDS011;53183;47.412;18.884;2024-03-22T11:04:39;15.27;;;9.93;;
56720;SDS011;53183;47.412;18.884;2024-03-22T11:07:05;18.75;;;10.57;;
56720;SDS011;53183;47.412;18.884;2024-03-22T11:09:39;18.10;;;10.80;;
56720;SDS011;53183;47.412;18.884;2024-03-22T11:12:05;16.12;;;9.80;;
56720;SDS011;53183;47.412;18.884;2024-03-22T11:14:32;16.87;;;9.15;;
56720;SDS011;53183;47.412;18.884;2024-03-22T11:16:58;13.25;;;8.80;;
56720;SDS011;53183;47.412;18.884;2024-03-22T11:19:25;13.10;;;7.97;;
56720;SDS011;53183;47.412;18.884;2024-03-22T11:21:51;14.95;;;7.82;;
56720;SDS011;53183;47.412;18.884;2024-03-22T11:24:18;15.35;;;7.22;;
56720;SDS011;53183;47.412;18.884;2024-03-22T11:26:45;10.30;;;4.80;;
56720;SDS011;53183;47.412;18.884;2024-03-22T11:29:14;11.48;;;4.18;;
56720;SDS011;53183;47.412;18.884;2024-03-22T11:31:40;9.00;;;3.87;;
56720;SDS011;53183;47.412;18.884;2024-03-22T11:34:05;9.75;;;5.28;;
56720;SDS011;53183;47.412;18.884;2024-03-22T11:36:35;9.43;;;3.90;;
56720;SDS011;53183;47.412;18.884;2024-03-22T11:39:01;7.35;;;4.62;;
56720;SDS011;53183;47.412;18.884;2024-03-22T11:41:30;7.53;;;5.03;;
56720;SDS011;53183;47.412;18.884;2024-03-22T11:43:58;9.32;;;5.70;;
56720;SDS011;53183;47.412;18.884;2024-03-22T11:46:26;8.02;;;5.22;;
56720;SDS011;53183;47.412;18.884;2024-03-22T11:48:53;14.05;;;6.47;;
56720;SDS011;53183;47.412;18.884;2024-03-22T11:51:20;9.27;;;6.95;;
56720;SDS011;53183;47.412;18.884;2024-03-22T11:53:50;13.48;;;8.48;;
56720;SDS011;53183;47.412;18.884;2024-03-22T11:56:18;14.52;;;8.13;;
56720;SDS011;53183;47.412;18.884;2024-03-22T11:58:46;14.10;;;8.05;;
56720;SDS011;53183;47.412;18.884;2024-03-22T12:01:14;15.73;;;8.85;;
56720;SDS011;53183;47.412;18.884;2024-03-22T12:03:49;12.90;;;8.93;;
56720;SDS011;53183;47.412;18.884;2024-03-22T12:06:15;15.40;;;8.63;;
56720;SDS011;53183;47.412;18.884;2024-03-22T12:08:41;23.23;;;8.85;;
56720;SDS011;53183;47.412;18.884;2024-03-22T12:11:09;13.52;;;7.68;;
56720;SDS011;53183;47.412;18.884;2024-03-22T12:13:38;9.65;;;6.68;;
56720;SDS011;53183;47.412;18.884;2024-03-22T12:16:04;14.32;;;7.57;;
56720;SDS011;53183;47.412;18.884;2024-03-22T12:18:31;11.02;;;7.10;;
56720;SDS011;53183;47.412;18.884;2024-03-22T12:20:57;10.73;;;7.03;;
56720;SDS011;53183;47.412;18.884;2024-03-22T12:23:23;10.48;;;7.40;;
56720;SDS011;53183;47.412;18.884;2024-03-22T12:25:50;15.55;;;8.13;;
56720;SDS011;53183;47.412;18.884;2024-03-22T12:28:20;13.30;;;8.18;;
56720;SDS011;53183;47.412;18.884;2024-03-22T12:30:50;15.40;;;8.02;;
56720;SDS011;53183;47.412;18.884;2024-03-22T12:33:16;11.20;;;7.35;;
56720;SDS011;53183;47.412;18.884;2024-03-22T12:35:43;9.98;;;6.03;;
56720;SDS011;53183;47.412;18.884;2024-03-22T12:38:09;9.15;;;6.65;;
56720;SDS011;53183;47.412;18.884;2024-03-22T12:40:38;12.77;;;7.95;;
56720;SDS011;53183;47.412;18.884;2024-03-22T12:43:04;10.18;;;7.10;;
56720;SDS011;53183;47.412;18.884;2024-03-22T12:45:31;12.95;;;7.18;;
56720;SDS011;53183;47.412;18.884;2024-03-22T12:47:58;11.52;;;6.68;;
56720;SDS011;53183;47.412;18.884;2024-03-22T12:50:24;14.40;;;6.95;;
56720;SDS011;53183;47.412;18.884;2024-03-22T12:52:52;11.93;;;7.18;;
56720;SDS011;53183;47.412;18.884;2024-03-22T12:55:18;11.75;;;7.65;;
56720;SDS011;53183;47.412;18.884;2024-03-22T12:57:44;11.07;;;7.00;;
56720;SDS011;53183;47.412;18.884;2024-03-22T13:00:11;12.25;;;7.45;;
56720;SDS011;53183;47.412;18.884;2024-03-22T13:02:44;8.70;;;6.60;;
56720;SDS011;53183;47.412;18.884;2024-03-22T13:05:12;11.80;;;7.12;;
56720;SDS011;53183;47.412;18.884;2024-03-22T13:07:38;11.40;;;6.45;;
56720;SDS011;53183;47.412;18.884;2024-03-22T13:10:07;8.77;;;6.00;;
56720;SDS011;53183;47.412;18.884;2024-03-22T13:12:34;8.85;;;5.82;;
56720;SDS011;53183;47.412;18.884;2024-03-22T13:15:01;9.23;;;5.68;;
56720;SDS011;53183;47.412;18.884;2024-03-22T13:17:29;8.98;;;5.78;;
56720;SDS011;53183;47.412;18.884;2024-03-22T13:19:55;10.70;;;6.20;;
56720;SDS011;53183;47.412;18.884;2024-03-22T13:22:22;10.82;;;6.07;;
56720;SDS011;53183;47.412;18.884;2024-03-22T13:24:48;11.18;;;7.00;;
56720;SDS011;53183;47.412;18.884;2024-03-22T13:27:16;10.65;;;6.28;;
56720;SDS011;53183;47.412;18.884;2024-03-22T13:29:43;8.95;;;6.07;;
56720;SDS011;53183;47.412;18.884;2024-03-22T13:32:09;9.95;;;6.60;;
56720;SDS011;53183;47.412;18.884;2024-03-22T13:34:36;9.68;;;6.35;;
56720;SDS011;53183;47.412;18.884;2024-03-22T13:37:03;10.85;;;6.87;;
56720;SDS011;53183;47.412;18.884;2024-03-22T13:39:29;9.13;;;6.53;;
56720;SDS011;53183;47.412;18.884;2024-03-22T13:41:56;10.25;;;7.25;;
56720;SDS011;53183;47.412;18.884;2024-03-22T13:44:22;12.18;;;7.18;;
56720;SDS011;53183;47.412;18.884;2024-03-22T13:46:49;9.88;;;6.93;;
56720;SDS011;53183;47.412;18.884;2024-03-22T13:49:16;13.07;;;6.72;;
56720;SDS011;53183;47.412;18.884;2024-03-22T13:51:43;14.07;;;7.50;;
56720;SDS011;53183;47.412;18.884;2024-03-22T13:54:11;12.90;;;6.40;;
56720;SDS011;53183;47.412;18.884;2024-03-22T13:56:38;9.98;;;6.87;;
56720;SDS011;53183;47.412;18.884;2024-03-22T13:59:04;10.38;;;6.97;;
56720;SDS011;53183;47.412;18.884;2024-03-22T14:01:35;11.35;;;7.00;;
56720;SDS011;53183;47.412;18.884;2024-03-22T14:04:02;16.35;;;6.20;;
56720;SDS011;53183;47.412;18.884;2024-03-22T14:06:32;9.57;;;5.62;;
56720;SDS011;53183;47.412;18.884;2024-03-22T14:09:01;14.60;;;7.68;;
56720;SDS011;53183;47.412;18.884;2024-03-22T14:11:28;12.05;;;7.12;;
56720;SDS011;53183;47.412;18.884;2024-03-22T14:13:59;11.85;;;7.65;;